createdAt,value
2017-05-28T00:00:36.819Z,0
2017-05-28T00:01:49.358Z,0
2017-05-28T00:03:00.983Z,0
2017-05-28T00:04:12.927Z,0
2017-05-28T00:05:23.917Z,0
2017-05-28T00:06:36.442Z,0
2017-05-28T00:07:48.990Z,0
2017-05-28T00:09:01.526Z,0
2017-05-28T00:10:14.034Z,0
2017-05-28T00:11:26.279Z,0
2017-05-28T00:12:38.823Z,0
2017-05-28T00:13:51.070Z,0
2017-05-28T00:15:03.609Z,0
2017-05-28T00:16:15.256Z,0
2017-05-28T00:17:27.780Z,0
2017-05-28T00:18:40.297Z,0
2017-05-28T00:19:52.826Z,0
2017-05-28T00:21:05.374Z,0
2017-05-28T00:22:17.294Z,0
2017-05-28T00:23:29.810Z,0
2017-05-28T00:24:41.735Z,0
2017-05-28T00:25:54.358Z,0
2017-05-28T00:27:06.894Z,0
2017-05-28T00:28:19.140Z,0
2017-05-28T00:29:31.386Z,0
2017-05-28T00:30:43.634Z,0
2017-05-28T00:31:55.836Z,0
2017-05-28T00:33:08.374Z,0
2017-05-28T00:34:20.598Z,0
2017-05-28T00:35:32.847Z,0
2017-05-28T00:36:44.794Z,0
2017-05-28T00:37:57.590Z,0
2017-05-28T00:39:09.811Z,0
2017-05-28T00:40:21.731Z,0
2017-05-28T00:41:34.291Z,0
2017-05-28T00:42:46.819Z,0
2017-05-28T00:43:58.771Z,0
2017-05-28T00:45:11.328Z,0
2017-05-28T00:46:23.575Z,0
2017-05-28T00:47:35.821Z,0
2017-05-28T00:48:48.370Z,0
2017-05-28T00:50:00.900Z,0
2017-05-28T00:51:12.859Z,0
2017-05-28T00:52:25.408Z,0
2017-05-28T00:53:37.952Z,0
2017-05-28T00:54:50.482Z,0
2017-05-28T00:56:02.996Z,0
2017-05-28T00:57:14.937Z,0
2017-05-28T00:58:27.461Z,0
2017-05-28T00:59:40.007Z,0
2017-05-28T01:00:52.537Z,0
2017-05-28T01:02:04.788Z,0
2017-05-28T01:03:17.003Z,0
2017-05-28T01:04:29.248Z,0
2017-05-28T01:05:41.470Z,0
2017-05-28T01:06:53.716Z,0
2017-05-28T01:08:05.953Z,0
2017-05-28T01:09:17.880Z,0
2017-05-28T01:10:30.404Z,0
2017-05-28T01:11:42.951Z,0
2017-05-28T01:12:55.185Z,0
2017-05-28T01:14:07.131Z,0
2017-05-28T01:15:19.359Z,0
2017-05-28T01:16:30.961Z,0
2017-05-28T01:17:43.221Z,0
2017-05-28T01:18:55.450Z,0
2017-05-28T01:20:08.018Z,0
2017-05-28T01:21:20.785Z,0
2017-05-28T01:22:33.328Z,0
2017-05-28T01:23:45.584Z,0
2017-05-28T01:24:58.123Z,0
2017-05-28T01:26:10.674Z,0
2017-05-28T01:27:23.202Z,0
2017-05-28T01:28:35.444Z,0
2017-05-28T01:29:47.687Z,0
2017-05-28T01:30:59.933Z,0
2017-05-28T01:32:12.151Z,0
2017-05-28T01:33:24.394Z,0
2017-05-28T01:34:36.636Z,0
2017-05-28T01:35:48.593Z,0
2017-05-28T01:37:01.139Z,0
2017-05-28T01:38:13.362Z,0
2017-05-28T01:39:25.877Z,0
2017-05-28T01:40:38.174Z,0
2017-05-28T01:41:50.698Z,0
2017-05-28T01:43:03.217Z,0
2017-05-28T01:44:15.753Z,0
2017-05-28T01:45:28.282Z,0
2017-05-28T01:46:40.820Z,0
2017-05-28T01:47:53.041Z,0
2017-05-28T01:49:05.562Z,0
2017-05-28T01:50:17.183Z,0
2017-05-28T01:51:29.711Z,0
2017-05-28T01:52:41.656Z,0
2017-05-28T01:53:53.600Z,0
2017-05-28T01:55:06.121Z,0
2017-05-28T01:56:18.049Z,0
2017-05-28T01:57:30.595Z,0
2017-05-28T01:58:43.429Z,0
2017-05-28T01:59:55.679Z,0
2017-05-28T02:01:07.910Z,0
2017-05-28T02:02:19.867Z,0
2017-05-28T02:03:32.396Z,0
2017-05-28T02:04:45.192Z,0
2017-05-28T02:05:57.733Z,0
2017-05-28T02:07:09.986Z,0
2017-05-28T02:08:22.507Z,0
2017-05-28T02:09:34.729Z,0
2017-05-28T02:10:47.272Z,0
2017-05-28T02:11:59.510Z,0
2017-05-28T02:13:11.738Z,0
2017-05-28T02:14:23.666Z,0
2017-05-28T02:15:35.626Z,0
2017-05-28T02:16:48.155Z,0
2017-05-28T02:18:00.694Z,0
2017-05-28T02:19:13.225Z,0
2017-05-28T02:20:25.167Z,0
2017-05-28T02:21:37.727Z,0
2017-05-28T02:22:50.280Z,0
2017-05-28T02:24:02.819Z,0
2017-05-28T02:25:15.047Z,0
2017-05-28T02:26:27.872Z,0
2017-05-28T02:27:40.445Z,0
2017-05-28T02:28:52.715Z,0
2017-05-28T02:30:05.285Z,0
2017-05-28T02:31:16.919Z,0
2017-05-28T02:32:29.469Z,0
2017-05-28T02:33:41.711Z,0
2017-05-28T02:34:53.932Z,0
2017-05-28T02:36:06.468Z,0
2017-05-28T02:37:19.028Z,0
2017-05-28T02:38:31.281Z,0
2017-05-28T02:39:43.803Z,0
2017-05-28T02:40:55.782Z,0
2017-05-28T02:42:08.318Z,0
2017-05-28T02:43:20.541Z,0
2017-05-28T02:44:32.764Z,5
2017-05-28T02:45:45.007Z,5
2017-05-28T02:46:57.249Z,5
2017-05-28T02:48:09.499Z,5
2017-05-28T02:49:21.766Z,5
2017-05-28T02:50:34.316Z,5
2017-05-28T02:51:46.279Z,5
2017-05-28T02:52:58.807Z,10
2017-05-28T02:54:11.024Z,10
2017-05-28T02:55:23.566Z,10
2017-05-28T02:56:35.470Z,10
2017-05-28T02:57:47.718Z,10
2017-05-28T02:59:00.534Z,15
2017-05-28T03:00:12.772Z,15
2017-05-28T03:01:25.306Z,15
2017-05-28T03:02:37.822Z,15
2017-05-28T03:03:50.374Z,15
2017-05-28T03:05:02.313Z,20
2017-05-28T03:06:14.852Z,20
2017-05-28T03:07:27.401Z,20
2017-05-28T03:08:39.642Z,20
2017-05-28T03:09:52.171Z,25
2017-05-28T03:11:04.695Z,25
2017-05-28T03:12:16.917Z,25
2017-05-28T03:13:29.512Z,30
2017-05-28T03:14:42.030Z,30
2017-05-28T03:15:54.622Z,30
2017-05-28T03:17:07.121Z,30
2017-05-28T03:18:19.642Z,35
2017-05-28T03:19:32.146Z,35
2017-05-28T03:20:44.693Z,35
2017-05-28T03:21:57.248Z,40
2017-05-28T03:23:09.794Z,40
2017-05-28T03:24:22.302Z,40
2017-05-28T03:25:34.848Z,40
2017-05-28T03:26:47.405Z,45
2017-05-28T03:27:59.652Z,45
2017-05-28T03:29:12.202Z,45
2017-05-28T03:30:24.744Z,50
2017-05-28T03:31:36.739Z,50
2017-05-28T03:32:49.268Z,50
2017-05-28T03:34:01.468Z,50
2017-05-28T03:35:13.395Z,55
2017-05-28T03:36:25.631Z,55
2017-05-28T03:37:38.127Z,55
2017-05-28T03:38:50.366Z,60
2017-05-28T03:40:02.614Z,60
2017-05-28T03:41:14.861Z,60
2017-05-28T03:42:26.757Z,65
2017-05-28T03:43:39.285Z,65
2017-05-28T03:44:51.557Z,65
2017-05-28T03:46:03.773Z,65
2017-05-28T03:47:15.705Z,70
2017-05-28T03:48:28.220Z,70
2017-05-28T03:49:40.454Z,70
2017-05-28T03:50:52.377Z,75
2017-05-28T03:52:04.608Z,75
2017-05-28T03:53:17.170Z,75
2017-05-28T03:54:29.716Z,75
2017-05-28T03:55:42.221Z,80
2017-05-28T03:56:54.764Z,80
2017-05-28T03:58:07.299Z,80
2017-05-28T03:59:19.504Z,80
2017-05-28T04:00:32.024Z,85
2017-05-28T04:01:43.939Z,85
2017-05-28T04:02:56.168Z,85
2017-05-28T04:04:08.667Z,85
2017-05-28T04:05:21.207Z,90
2017-05-28T04:06:33.457Z,90
2017-05-28T04:07:46.006Z,90
2017-05-28T04:08:58.567Z,90
2017-05-28T04:10:10.495Z,95
2017-05-28T04:11:22.720Z,95
2017-05-28T04:12:35.261Z,95
2017-05-28T04:13:47.783Z,95
2017-05-28T04:15:00.008Z,95
2017-05-28T04:16:12.238Z,100
2017-05-28T04:17:23.860Z,100
2017-05-28T04:18:36.442Z,100
2017-05-28T04:19:49.002Z,100
2017-05-28T04:21:01.231Z,105
2017-05-28T04:22:13.771Z,105
2017-05-28T04:23:26.292Z,105
2017-05-28T04:24:38.535Z,105
2017-05-28T04:25:51.042Z,110
2017-05-28T04:27:03.580Z,110
2017-05-28T04:28:15.535Z,110
2017-05-28T04:29:28.056Z,110
2017-05-28T04:30:40.606Z,115
2017-05-28T04:31:53.165Z,115
2017-05-28T04:33:05.390Z,115
2017-05-28T04:34:17.314Z,115
2017-05-28T04:35:29.873Z,115
2017-05-28T04:36:42.730Z,120
2017-05-28T04:37:55.277Z,120
2017-05-28T04:39:07.494Z,120
2017-05-28T04:40:19.137Z,120
2017-05-28T04:41:31.728Z,125
2017-05-28T04:42:43.959Z,125
2017-05-28T04:43:56.501Z,125
2017-05-28T04:45:08.427Z,125
2017-05-28T04:46:20.962Z,130
2017-05-28T04:47:33.791Z,130
2017-05-28T04:48:46.031Z,130
2017-05-28T04:49:57.978Z,130
2017-05-28T04:51:10.227Z,135
2017-05-28T04:52:22.169Z,135
2017-05-28T04:53:33.812Z,135
2017-05-28T04:54:46.341Z,140
2017-05-28T04:55:58.589Z,140
2017-05-28T04:57:11.112Z,140
2017-05-28T04:58:23.578Z,145
2017-05-28T04:59:35.780Z,145
2017-05-28T05:00:48.299Z,145
2017-05-28T05:02:00.884Z,150
2017-05-28T05:03:13.134Z,150
2017-05-28T05:04:25.361Z,155
2017-05-28T05:05:37.596Z,155
2017-05-28T05:06:49.519Z,160
2017-05-28T05:08:01.163Z,160
2017-05-28T05:09:13.701Z,160
2017-05-28T05:10:26.013Z,160
2017-05-28T05:11:37.650Z,185
2017-05-28T05:12:49.610Z,170
2017-05-28T05:14:02.181Z,170
2017-05-28T05:15:14.425Z,180
2017-05-28T05:16:26.663Z,200
2017-05-28T05:17:39.190Z,205
2017-05-28T05:18:51.735Z,205
2017-05-28T05:20:04.508Z,195
2017-05-28T05:21:16.730Z,260
2017-05-28T05:22:29.250Z,290
2017-05-28T05:23:41.814Z,335
2017-05-28T05:24:54.338Z,400
2017-05-28T05:26:06.289Z,300
2017-05-28T05:27:18.551Z,245
2017-05-28T05:28:31.100Z,325
2017-05-28T05:29:43.340Z,265
2017-05-28T05:30:55.621Z,240
2017-05-28T05:32:07.815Z,190
2017-05-28T05:33:20.360Z,170
2017-05-28T05:34:32.899Z,170
2017-05-28T05:35:45.408Z,175
2017-05-28T05:36:57.932Z,185
2017-05-28T05:38:10.169Z,230
2017-05-28T05:39:22.707Z,255
2017-05-28T05:40:34.636Z,250
2017-05-28T05:41:47.132Z,240
2017-05-28T05:42:59.652Z,205
2017-05-28T05:44:11.294Z,250
2017-05-28T05:45:23.597Z,205
2017-05-28T05:46:36.144Z,200
2017-05-28T05:47:48.688Z,200
2017-05-28T05:49:01.213Z,215
2017-05-28T05:50:12.862Z,215
2017-05-28T05:51:25.102Z,210
2017-05-28T05:52:37.648Z,205
2017-05-28T05:53:49.913Z,205
2017-05-28T05:55:02.454Z,225
2017-05-28T05:56:14.986Z,225
2017-05-28T05:57:26.632Z,220
2017-05-28T05:58:38.549Z,225
2017-05-28T05:59:51.098Z,245
2017-05-28T06:01:03.041Z,280
2017-05-28T06:02:14.992Z,330
2017-05-28T06:03:26.891Z,385
2017-05-28T06:04:39.429Z,355
2017-05-28T06:05:51.667Z,295
2017-05-28T06:07:03.913Z,275
2017-05-28T06:08:16.169Z,295
2017-05-28T06:09:28.662Z,340
2017-05-28T06:10:40.912Z,315
2017-05-28T06:11:53.150Z,625
2017-05-28T06:13:05.399Z,635
2017-05-28T06:14:17.326Z,610
2017-05-28T06:15:29.572Z,835
2017-05-28T06:16:42.092Z,805
2017-05-28T06:17:54.329Z,475
2017-05-28T06:19:06.272Z,435
2017-05-28T06:20:18.830Z,560
2017-05-28T06:21:30.464Z,670
2017-05-28T06:22:42.736Z,540
2017-05-28T06:23:55.286Z,450
2017-05-28T06:25:07.510Z,510
2017-05-28T06:26:19.458Z,585
2017-05-28T06:27:31.722Z,840
2017-05-28T06:28:44.248Z,825
2017-05-28T06:29:56.795Z,750
2017-05-28T06:31:08.732Z,1025
2017-05-28T06:32:20.660Z,530
2017-05-28T06:33:32.907Z,655
2017-05-28T06:34:45.129Z,1255
2017-05-28T06:35:57.676Z,995
2017-05-28T06:37:09.912Z,1080
2017-05-28T06:38:22.443Z,1200
2017-05-28T06:39:34.989Z,1160
2017-05-28T06:40:46.932Z,1215
2017-05-28T06:41:59.475Z,1230
2017-05-28T06:43:11.999Z,1215
2017-05-28T06:44:24.272Z,1220
2017-05-28T06:45:36.818Z,1280
2017-05-28T06:46:48.754Z,1305
2017-05-28T06:48:00.986Z,1310
2017-05-28T06:49:13.532Z,1360
2017-05-28T06:50:25.482Z,1300
2017-05-28T06:51:37.737Z,1370
2017-05-28T06:52:50.024Z,1360
2017-05-28T06:54:02.540Z,1375
2017-05-28T06:55:14.204Z,1400
2017-05-28T06:56:26.753Z,1445
2017-05-28T06:57:39.551Z,1410
2017-05-28T06:58:52.087Z,1380
2017-05-28T07:00:04.343Z,1445
2017-05-28T07:01:16.288Z,1440
2017-05-28T07:02:28.529Z,1455
2017-05-28T07:03:41.054Z,1475
2017-05-28T07:04:53.279Z,1490
2017-05-28T07:06:05.839Z,1485
2017-05-28T07:07:18.384Z,1560
2017-05-28T07:08:30.934Z,1560
2017-05-28T07:09:43.504Z,1575
2017-05-28T07:10:55.734Z,1585
2017-05-28T07:12:07.980Z,1670
2017-05-28T07:13:20.246Z,1620
2017-05-28T07:14:32.510Z,1675
2017-05-28T07:15:45.063Z,1680
2017-05-28T07:16:57.601Z,1710
2017-05-28T07:18:10.162Z,1730
2017-05-28T07:19:22.448Z,1685
2017-05-28T07:20:34.697Z,1745
2017-05-28T07:21:47.264Z,1785
2017-05-28T07:22:59.514Z,1660
2017-05-28T07:24:12.059Z,1770
2017-05-28T07:25:24.307Z,1840
2017-05-28T07:26:36.858Z,1845
2017-05-28T07:27:48.542Z,1870
2017-05-28T07:29:01.118Z,1855
2017-05-28T07:30:13.373Z,1870
2017-05-28T07:31:25.614Z,1935
2017-05-28T07:32:37.878Z,1830
2017-05-28T07:33:50.148Z,1865
2017-05-28T07:35:02.705Z,1905
2017-05-28T07:36:15.025Z,1920
2017-05-28T07:37:27.590Z,1985
2017-05-28T07:38:40.153Z,2045
2017-05-28T07:39:52.732Z,2020
2017-05-28T07:41:05.279Z,1960
2017-05-28T07:42:17.852Z,1915
2017-05-28T07:43:30.440Z,1930
2017-05-28T07:44:42.692Z,2060
2017-05-28T07:45:54.317Z,2190
2017-05-28T07:47:06.278Z,2115
2017-05-28T07:48:18.849Z,1995
2017-05-28T07:49:31.420Z,2095
2017-05-28T07:50:43.996Z,2155
2017-05-28T07:51:56.237Z,2145
2017-05-28T07:53:08.803Z,2205
2017-05-28T07:54:20.764Z,2255
2017-05-28T07:55:33.371Z,2255
2017-05-28T07:56:45.941Z,2230
2017-05-28T07:57:57.897Z,2225
2017-05-28T07:59:10.138Z,2440
2017-05-28T08:00:22.141Z,2380
2017-05-28T08:01:34.429Z,2310
2017-05-28T08:02:46.955Z,2525
2017-05-28T08:03:59.501Z,2410
2017-05-28T08:05:11.466Z,2300
2017-05-28T08:06:23.422Z,2400
2017-05-28T08:07:36.009Z,2440
2017-05-28T08:08:48.563Z,2575
2017-05-28T08:10:01.129Z,2635
2017-05-28T08:11:13.379Z,2475
2017-05-28T08:12:25.722Z,2465
2017-05-28T08:13:38.274Z,2445
2017-05-28T08:14:50.531Z,2475
2017-05-28T08:16:03.113Z,2480
2017-05-28T08:17:14.480Z,2590
2017-05-28T08:18:26.744Z,2530
2017-05-28T08:19:39.317Z,2495
2017-05-28T08:20:51.593Z,2385
2017-05-28T08:22:04.145Z,2570
2017-05-28T08:23:16.127Z,2765
2017-05-28T08:24:28.705Z,2685
2017-05-28T08:25:41.251Z,2735
2017-05-28T08:26:53.801Z,2640
2017-05-28T08:28:06.368Z,2435
2017-05-28T08:29:18.942Z,2665
2017-05-28T08:30:31.256Z,2945
2017-05-28T08:31:43.806Z,2575
2017-05-28T08:32:56.381Z,2605
2017-05-28T08:34:08.948Z,2555
2017-05-28T08:35:21.473Z,2815
2017-05-28T08:36:33.742Z,3095
2017-05-28T08:37:46.336Z,3050
2017-05-28T08:38:58.886Z,2970
2017-05-28T08:40:11.779Z,2830
2017-05-28T08:41:24.044Z,3020
2017-05-28T08:42:36.618Z,3025
2017-05-28T08:43:48.568Z,2870
2017-05-28T08:45:00.814Z,2980
2017-05-28T08:46:13.385Z,2905
2017-05-28T08:47:25.656Z,3135
2017-05-28T08:48:38.246Z,2890
2017-05-28T08:49:50.199Z,2995
2017-05-28T08:51:02.794Z,3000
2017-05-28T08:52:14.479Z,3155
2017-05-28T08:53:27.059Z,3320
2017-05-28T08:54:39.324Z,3315
2017-05-28T08:55:51.304Z,3265
2017-05-28T08:57:03.863Z,3295
2017-05-28T08:58:16.446Z,3210
2017-05-28T08:59:29.008Z,2370
2017-05-28T09:00:41.567Z,1485
2017-05-28T09:01:53.826Z,2100
2017-05-28T09:03:06.393Z,2965
2017-05-28T09:04:18.975Z,2895
2017-05-28T09:05:31.543Z,3630
2017-05-28T09:06:44.090Z,3525
2017-05-28T09:07:56.364Z,3495
2017-05-28T09:09:08.310Z,2980
2017-05-28T09:10:20.605Z,2955
2017-05-28T09:11:32.847Z,3290
2017-05-28T09:12:45.395Z,3275
2017-05-28T09:13:57.989Z,3460
2017-05-28T09:15:10.238Z,3635
2017-05-28T09:16:22.825Z,3615
2017-05-28T09:17:34.775Z,3795
2017-05-28T09:18:47.638Z,3620
2017-05-28T09:19:59.913Z,3885
2017-05-28T09:21:12.492Z,3700
2017-05-28T09:22:24.440Z,3700
2017-05-28T09:23:37.027Z,3655
2017-05-28T09:24:49.601Z,3915
2017-05-28T09:26:01.547Z,3665
2017-05-28T09:27:13.788Z,3585
2017-05-28T09:28:25.456Z,3400
2017-05-28T09:29:38.011Z,3375
2017-05-28T09:30:49.976Z,3250
2017-05-28T09:32:02.286Z,2575
2017-05-28T09:33:14.849Z,3175
2017-05-28T09:34:26.798Z,3335
2017-05-28T09:35:39.344Z,3500
2017-05-28T09:36:51.632Z,3545
2017-05-28T09:38:03.886Z,3375
2017-05-28T09:39:16.168Z,2885
2017-05-28T09:40:28.690Z,2575
2017-05-28T09:41:41.262Z,1825
2017-05-28T09:42:53.833Z,1860
2017-05-28T09:44:06.087Z,3150
2017-05-28T09:45:18.650Z,3490
2017-05-28T09:46:30.923Z,3455
2017-05-28T09:47:43.495Z,3280
2017-05-28T09:48:55.779Z,3175
2017-05-28T09:50:08.023Z,3340
2017-05-28T09:51:20.604Z,3485
2017-05-28T09:52:33.178Z,3740
2017-05-28T09:53:45.446Z,4175
2017-05-28T09:54:58.017Z,3780
2017-05-28T09:56:10.595Z,3815
2017-05-28T09:57:23.161Z,4100
2017-05-28T09:58:35.121Z,4135
2017-05-28T09:59:47.384Z,4025
2017-05-28T10:00:59.961Z,3895
2017-05-28T10:02:12.467Z,3810
2017-05-28T10:03:25.020Z,3840
2017-05-28T10:04:37.569Z,3925
2017-05-28T10:05:50.139Z,3665
2017-05-28T10:07:02.429Z,3970
2017-05-28T10:08:14.997Z,4045
2017-05-28T10:09:27.571Z,3930
2017-05-28T10:10:40.123Z,4265
2017-05-28T10:11:52.700Z,4145
2017-05-28T10:13:04.962Z,3905
2017-05-28T10:14:17.233Z,4095
2017-05-28T10:15:28.878Z,4685
2017-05-28T10:16:41.151Z,4310
2017-05-28T10:17:53.101Z,4155
2017-05-28T10:19:05.372Z,4100
2017-05-28T10:20:17.645Z,4340
2017-05-28T10:21:29.911Z,4500
2017-05-28T10:22:42.472Z,4355
2017-05-28T10:23:55.069Z,4460
2017-05-28T10:25:07.067Z,4470
2017-05-28T10:26:19.036Z,4650
2017-05-28T10:27:31.291Z,4820
2017-05-28T10:28:43.826Z,4860
2017-05-28T10:29:55.879Z,4845
2017-05-28T10:31:08.455Z,2665
2017-05-28T10:32:20.426Z,3800
2017-05-28T10:33:33.004Z,3490
2017-05-28T10:34:45.567Z,3620
2017-05-28T10:35:58.135Z,3225
2017-05-28T10:37:10.110Z,2690
2017-05-28T10:38:22.398Z,2375
2017-05-28T10:39:34.648Z,3155
2017-05-28T10:40:47.198Z,3395
2017-05-28T10:41:59.794Z,3230
2017-05-28T10:43:12.091Z,4070
2017-05-28T10:44:24.657Z,4175
2017-05-28T10:45:37.208Z,3955
2017-05-28T10:46:49.465Z,3820
2017-05-28T10:48:01.727Z,4015
2017-05-28T10:49:14.011Z,4075
2017-05-28T10:50:25.981Z,4160
2017-05-28T10:51:38.552Z,4105
2017-05-28T10:52:51.132Z,3870
2017-05-28T10:54:03.379Z,4480
2017-05-28T10:55:15.645Z,4070
2017-05-28T10:56:27.641Z,3910
2017-05-28T10:57:39.904Z,3855
2017-05-28T10:58:52.475Z,3890
2017-05-28T11:00:04.777Z,3765
2017-05-28T11:01:17.370Z,3405
2017-05-28T11:02:29.342Z,3395
2017-05-28T11:03:41.921Z,2955
2017-05-28T11:04:54.466Z,2785
2017-05-28T11:06:07.037Z,2440
2017-05-28T11:07:18.700Z,2805
2017-05-28T11:08:31.267Z,3245
2017-05-28T11:09:43.841Z,3120
2017-05-28T11:10:56.138Z,3075
2017-05-28T11:12:08.407Z,2800
2017-05-28T11:13:20.662Z,2355
2017-05-28T11:14:32.624Z,2680
2017-05-28T11:15:45.231Z,2550
2017-05-28T11:16:56.899Z,2715
2017-05-28T11:18:09.409Z,2595
2017-05-28T11:19:21.091Z,2190
2017-05-28T11:20:33.362Z,2150
2017-05-28T11:21:45.926Z,2485
2017-05-28T11:22:57.878Z,2365
2017-05-28T11:24:10.127Z,2395
2017-05-28T11:25:22.692Z,2055
2017-05-28T11:26:34.659Z,1450
2017-05-28T11:27:47.232Z,1660
2017-05-28T11:28:59.502Z,1395
2017-05-28T11:30:11.769Z,1110
2017-05-28T11:31:24.026Z,1180
2017-05-28T11:32:36.590Z,2455
2017-05-28T11:33:49.192Z,2480
2017-05-28T11:35:01.761Z,2415
2017-05-28T11:36:14.324Z,2340
2017-05-28T11:37:26.302Z,2285
2017-05-28T11:38:38.847Z,2305
2017-05-28T11:39:51.115Z,2145
2017-05-28T11:41:03.395Z,2000
2017-05-28T11:42:16.027Z,1990
2017-05-28T11:43:28.327Z,1885
2017-05-28T11:44:40.577Z,1850
2017-05-28T11:45:52.844Z,2070
2017-05-28T11:47:05.399Z,1895
2017-05-28T11:48:17.087Z,1850
2017-05-28T11:49:29.378Z,2135
2017-05-28T11:50:41.950Z,2025
2017-05-28T11:51:54.507Z,2060
2017-05-28T11:53:07.095Z,2255
2017-05-28T11:54:19.064Z,2080
2017-05-28T11:55:31.333Z,2050
2017-05-28T11:56:43.903Z,2625
2017-05-28T11:57:56.474Z,3420
2017-05-28T11:59:08.725Z,4415
2017-05-28T12:00:21.274Z,4860
2017-05-28T12:01:32.637Z,4345
2017-05-28T12:02:44.612Z,3210
2017-05-28T12:03:56.882Z,4270
2017-05-28T12:05:09.454Z,4120
2017-05-28T12:06:21.721Z,4005
2017-05-28T12:07:34.009Z,3145
2017-05-28T12:08:46.300Z,2405
2017-05-28T12:09:58.545Z,3085
2017-05-28T12:11:11.171Z,3095
2017-05-28T12:12:23.133Z,2635
2017-05-28T12:13:35.698Z,3380
2017-05-28T12:14:47.951Z,3135
2017-05-28T12:16:00.239Z,3810
2017-05-28T12:17:12.213Z,3960
2017-05-28T12:18:24.181Z,3805
2017-05-28T12:19:36.759Z,3105
2017-05-28T12:20:49.323Z,2400
2017-05-28T12:22:01.932Z,2085
2017-05-28T12:23:14.789Z,1985
2017-05-28T12:24:27.060Z,1920
2017-05-28T12:25:39.333Z,2350
2017-05-28T12:26:51.602Z,2470
2017-05-28T12:28:04.183Z,2585
2017-05-28T12:29:16.760Z,2620
2017-05-28T12:30:29.053Z,2750
2017-05-28T12:31:41.657Z,3620
2017-05-28T12:32:54.233Z,3910
2017-05-28T12:34:06.517Z,4205
2017-05-28T12:35:19.084Z,4820
2017-05-28T12:36:31.347Z,4670
2017-05-28T12:37:43.929Z,4565
2017-05-28T12:38:56.165Z,4670
2017-05-28T12:40:08.743Z,4965
2017-05-28T12:41:21.016Z,5050
2017-05-28T12:42:33.274Z,5045
2017-05-28T12:43:45.856Z,5070
2017-05-28T12:44:58.674Z,4585
2017-05-28T12:46:11.240Z,3135
2017-05-28T12:47:23.494Z,1955
2017-05-28T12:48:35.161Z,2560
2017-05-28T12:49:47.758Z,4705
2017-05-28T12:51:00.070Z,4780
2017-05-28T12:52:12.327Z,4840
2017-05-28T12:53:24.912Z,5040
2017-05-28T12:54:37.523Z,5560
2017-05-28T12:55:50.086Z,4830
2017-05-28T12:57:02.632Z,4720
2017-05-28T12:58:15.173Z,5815
2017-05-28T12:59:27.129Z,5595
2017-05-28T13:00:39.716Z,5935
2017-05-28T13:01:52.043Z,6230
2017-05-28T13:03:04.613Z,6185
2017-05-28T13:04:16.885Z,6285
2017-05-28T13:05:29.129Z,6450
2017-05-28T13:06:41.721Z,5790
2017-05-28T13:07:54.264Z,5235
2017-05-28T13:09:06.797Z,6390
2017-05-28T13:10:19.078Z,6610
2017-05-28T13:11:31.334Z,6985
2017-05-28T13:12:43.604Z,6535
2017-05-28T13:13:55.872Z,2280
2017-05-28T13:15:08.143Z,4680
2017-05-28T13:16:20.421Z,3855
2017-05-28T13:17:32.963Z,2960
2017-05-28T13:18:45.521Z,6040
2017-05-28T13:19:57.787Z,6555
2017-05-28T13:21:10.076Z,6705
2017-05-28T13:22:22.639Z,6590
2017-05-28T13:23:34.911Z,6640
2017-05-28T13:24:47.464Z,6355
2017-05-28T13:26:00.013Z,6140
2017-05-28T13:27:12.255Z,5675
2017-05-28T13:28:24.830Z,5735
2017-05-28T13:29:37.428Z,5465
2017-05-28T13:30:49.969Z,5640
2017-05-28T13:32:02.517Z,5660
2017-05-28T13:33:14.790Z,5855
2017-05-28T13:34:26.777Z,5400
2017-05-28T13:35:39.343Z,5360
2017-05-28T13:36:51.898Z,4060
2017-05-28T13:38:04.171Z,3960
2017-05-28T13:39:17.008Z,5395
2017-05-28T13:40:28.956Z,4205
2017-05-28T13:41:41.523Z,4185
2017-05-28T13:42:53.754Z,3395
2017-05-28T13:44:06.305Z,3980
2017-05-28T13:45:18.570Z,2845
2017-05-28T13:46:30.819Z,4585
2017-05-28T13:47:43.107Z,4355
2017-05-28T13:48:55.363Z,5205
2017-05-28T13:50:07.952Z,5450
2017-05-28T13:51:20.231Z,5465
2017-05-28T13:52:32.500Z,5135
2017-05-28T13:53:45.044Z,4930
2017-05-28T13:54:57.291Z,4785
2017-05-28T13:56:09.559Z,4910
2017-05-28T13:57:21.795Z,5035
2017-05-28T13:58:34.374Z,4725
2017-05-28T13:59:46.626Z,4845
2017-05-28T14:00:59.446Z,4735
2017-05-28T14:02:11.404Z,4310
2017-05-28T14:03:23.435Z,3890
2017-05-28T14:04:35.999Z,3835
2017-05-28T14:05:48.570Z,3850
2017-05-28T14:07:00.523Z,4060
2017-05-28T14:08:12.767Z,4190
2017-05-28T14:09:25.315Z,3095
2017-05-28T14:10:37.878Z,4055
2017-05-28T14:11:50.432Z,4250
2017-05-28T14:13:02.399Z,3945
2017-05-28T14:14:14.650Z,2405
2017-05-28T14:15:26.623Z,1530
2017-05-28T14:16:39.225Z,1910
2017-05-28T14:17:51.790Z,2925
2017-05-28T14:19:04.072Z,1890
2017-05-28T14:20:16.626Z,1770
2017-05-28T14:21:28.892Z,1770
2017-05-28T14:22:41.168Z,1675
2017-05-28T14:23:53.446Z,2035
2017-05-28T14:25:05.709Z,2725
2017-05-28T14:26:17.960Z,3240
2017-05-28T14:27:30.227Z,3645
2017-05-28T14:28:42.201Z,3925
2017-05-28T14:29:54.771Z,3420
2017-05-28T14:31:07.338Z,1945
2017-05-28T14:32:19.260Z,2250
2017-05-28T14:33:31.810Z,3495
2017-05-28T14:34:44.394Z,3310
2017-05-28T14:35:56.967Z,3475
2017-05-28T14:37:09.223Z,3555
2017-05-28T14:38:21.482Z,3355
2017-05-28T14:39:33.726Z,3185
2017-05-28T14:40:45.989Z,850
2017-05-28T14:41:58.544Z,755
2017-05-28T14:43:11.105Z,680
2017-05-28T14:44:23.673Z,670
2017-05-28T14:45:35.940Z,690
2017-05-28T14:46:48.188Z,755
2017-05-28T14:48:00.752Z,840
2017-05-28T14:49:12.703Z,795
2017-05-28T14:50:25.272Z,760
2017-05-28T14:51:37.523Z,720
2017-05-28T14:52:49.799Z,775
2017-05-28T14:54:02.037Z,775
2017-05-28T14:55:13.978Z,690
2017-05-28T14:56:26.207Z,610
2017-05-28T14:57:38.753Z,550
2017-05-28T14:58:51.022Z,455
2017-05-28T15:00:02.985Z,400
2017-05-28T15:01:15.229Z,415
2017-05-28T15:02:27.185Z,460
2017-05-28T15:03:39.143Z,405
2017-05-28T15:04:51.696Z,370
2017-05-28T15:06:04.250Z,385
2017-05-28T15:07:16.194Z,405
2017-05-28T15:08:28.439Z,440
2017-05-28T15:09:40.388Z,430
2017-05-28T15:10:52.971Z,390
2017-05-28T15:12:05.227Z,320
2017-05-28T15:13:16.863Z,290
2017-05-28T15:14:28.812Z,280
2017-05-28T15:15:41.390Z,265
2017-05-28T15:16:53.627Z,235
2017-05-28T15:18:05.572Z,210
2017-05-28T15:19:17.252Z,210
2017-05-28T15:20:29.513Z,220
2017-05-28T15:21:42.044Z,225
2017-05-28T15:22:54.309Z,215
2017-05-28T15:24:06.913Z,200
2017-05-28T15:25:19.451Z,185
2017-05-28T15:26:31.995Z,190
2017-05-28T15:27:44.564Z,200
2017-05-28T15:28:57.139Z,210
2017-05-28T15:30:09.394Z,205
2017-05-28T15:31:21.352Z,205
2017-05-28T15:32:33.909Z,210
2017-05-28T15:33:46.170Z,240
2017-05-28T15:34:58.742Z,270
2017-05-28T15:36:11.011Z,295
2017-05-28T15:37:23.240Z,315
2017-05-28T15:38:34.887Z,340
2017-05-28T15:39:47.128Z,405
2017-05-28T15:40:59.680Z,390
2017-05-28T15:42:11.629Z,545
2017-05-28T15:43:24.197Z,425
2017-05-28T15:44:36.166Z,455
2017-05-28T15:45:48.707Z,490
2017-05-28T15:47:01.257Z,510
2017-05-28T15:48:13.811Z,500
2017-05-28T15:49:25.815Z,485
2017-05-28T15:50:38.366Z,450
2017-05-28T15:51:50.897Z,405
2017-05-28T15:53:02.862Z,365
2017-05-28T15:54:14.827Z,365
2017-05-28T15:55:27.078Z,425
2017-05-28T15:56:39.600Z,520
2017-05-28T15:57:52.167Z,625
2017-05-28T15:59:04.720Z,725
2017-05-28T16:00:16.966Z,775
2017-05-28T16:01:29.208Z,790
2017-05-28T16:02:41.774Z,825
2017-05-28T16:03:54.028Z,830
2017-05-28T16:05:06.651Z,815
2017-05-28T16:06:18.909Z,785
2017-05-28T16:07:31.465Z,720
2017-05-28T16:08:43.729Z,640
2017-05-28T16:09:55.978Z,575
2017-05-28T16:11:08.203Z,525
2017-05-28T16:12:20.438Z,480
2017-05-28T16:13:32.397Z,440
2017-05-28T16:14:44.658Z,420
2017-05-28T16:15:56.626Z,410
2017-05-28T16:17:08.897Z,410
2017-05-28T16:18:21.450Z,395
2017-05-28T16:19:33.418Z,375
2017-05-28T16:20:45.967Z,365
2017-05-28T16:21:58.819Z,370
2017-05-28T16:23:11.360Z,385
2017-05-28T16:24:23.009Z,390
2017-05-28T16:25:35.255Z,385
2017-05-28T16:26:47.543Z,385
2017-05-28T16:27:59.814Z,370
2017-05-28T16:29:11.763Z,345
2017-05-28T16:30:24.041Z,325
2017-05-28T16:31:36.286Z,305
2017-05-28T16:32:48.854Z,280
2017-05-28T16:34:01.397Z,265